sensor_id;sensor_type;location;lat;lon;timestamp;pressure;altitude;pressure_sealevel;temperature;humidity
27805;BME280;15183;51.350;11.102;2023-08-01T00:00:52;98674.13;;;20.53;67.03
27805;BME280;15183;51.350;11.102;2023-08-01T00:03:19;98660.53;;;20.50;66.42
27805;BME280;15183;51.350;11.102;2023-08-01T00:05:46;98675.69;;;20.63;66.82
27805;BME280;15183;51.350;11.102;2023-08-01T00:08:13;98665.84;;;20.67;66.54
27805;BME280;15183;51.350;11.102;2023-08-01T00:10:40;98667.44;;;20.68;66.91
27805;BME280;15183;51.350;11.102;2023-08-01T00:13:10;98669.47;;;20.72;66.45
27805;BME280;15183;51.350;11.102;2023-08-01T00:15:37;98657.41;;;20.78;66.61
27805;BME280;15183;51.350;11.102;2023-08-01T00:18:04;98650.78;;;20.84;66.52
27805;BME280;15183;51.350;11.102;2023-08-01T00:20:30;98640.63;;;20.90;66.74
27805;BME280;15183;51.350;11.102;2023-08-01T00:22:57;98643.91;;;20.95;66.00
27805;BME280;15183;51.350;11.102;2023-08-01T00:25:23;98634.53;;;21.02;65.94
27805;BME280;15183;51.350;11.102;2023-08-01T00:27:49;98632.31;;;21.04;66.26
27805;BME280;15183;51.350;11.102;2023-08-01T00:30:20;98614.88;;;21.01;66.41
27805;BME280;15183;51.350;11.102;2023-08-01T00:32:47;98613.91;;;21.06;65.90
27805;BME280;15183;51.350;11.102;2023-08-01T00:35:13;98591.44;;;21.02;66.53
27805;BME280;15183;51.350;11.102;2023-08-01T00:37:40;98574.50;;;21.01;65.85
27805;BME280;15183;51.350;11.102;2023-08-01T00:40:09;98567.66;;;21.04;66.47
27805;BME280;15183;51.350;11.102;2023-08-01T00:42:37;98574.50;;;21.01;66.30
27805;BME280;15183;51.350;11.102;2023-08-01T00:45:09;98583.56;;;20.96;66.73
27805;BME280;15183;51.350;11.102;2023-08-01T00:47:36;98584.06;;;20.90;66.43
27805;BME280;15183;51.350;11.102;2023-08-01T00:50:03;98573.69;;;20.79;66.58
27805;BME280;15183;51.350;11.102;2023-08-01T00:52:29;98544.94;;;20.62;66.80
27805;BME280;15183;51.350;11.102;2023-08-01T00:54:56;98550.13;;;20.67;67.14
27805;BME280;15183;51.350;11.102;2023-08-01T00:57:24;98550.47;;;20.66;67.35
27805;BME280;15183;51.350;11.102;2023-08-01T00:59:51;98544.88;;;20.71;67.27
27805;BME280;15183;51.350;11.102;2023-08-01T01:02:17;98545.81;;;20.75;67.04
27805;BME280;15183;51.350;11.102;2023-08-01T01:04:44;98536.94;;;20.75;67.56
27805;BME280;15183;51.350;11.102;2023-08-01T01:07:11;98528.53;;;20.85;66.81
27805;BME280;15183;51.350;11.102;2023-08-01T01:09:38;98522.19;;;20.81;67.21
27805;BME280;15183;51.350;11.102;2023-08-01T01:12:06;98528.59;;;20.98;66.60
27805;BME280;15183;51.350;11.102;2023-08-01T01:14:33;98518.94;;;20.96;66.63
27805;BME280;15183;51.350;11.102;2023-08-01T01:17:00;98519.66;;;21.06;66.96
27805;BME280;15183;51.350;11.102;2023-08-01T01:19:26;98501.25;;;21.08;66.71
27805;BME280;15183;51.350;11.102;2023-08-01T01:21:53;98502.19;;;21.12;66.52
27805;BME280;15183;51.350;11.102;2023-08-01T01:24:21;98509.41;;;21.20;66.73
27805;BME280;15183;51.350;11.102;2023-08-01T01:26:48;98492.97;;;21.13;66.85
27805;BME280;15183;51.350;11.102;2023-08-01T01:29:17;98494.63;;;21.27;66.28
27805;BME280;15183;51.350;11.102;2023-08-01T01:31:46;98495.41;;;21.27;66.73
27805;BME280;15183;51.350;11.102;2023-08-01T01:34:14;98493.16;;;21.29;66.41
27805;BME280;15183;51.350;11.102;2023-08-01T01:36:40;98487.91;;;21.33;66.54
27805;BME280;15183;51.350;11.102;2023-08-01T01:39:07;98445.63;;;21.12;66.71
27805;BME280;15183;51.350;11.102;2023-08-01T01:41:33;98477.97;;;21.46;66.63
27805;BME280;15183;51.350;11.102;2023-08-01T01:44:00;98471.13;;;21.48;66.23
27805;BME280;15183;51.350;11.102;2023-08-01T01:46:26;98460.78;;;21.50;66.04
27805;BME280;15183;51.350;11.102;2023-08-01T01:48:52;98463.94;;;21.52;65.99
27805;BME280;15183;51.350;11.102;2023-08-01T01:51:21;98452.38;;;21.52;66.22
27805;BME280;15183;51.350;11.102;2023-08-01T01:53:47;98459.34;;;21.53;66.58
27805;BME280;15183;51.350;11.102;2023-08-01T01:56:14;98452.69;;;21.50;66.30
27805;BME280;15183;51.350;11.102;2023-08-01T01:58:41;98443.50;;;21.51;66.67
27805;BME280;15183;51.350;11.102;2023-08-01T02:01:07;98436.97;;;21.52;66.23
27805;BME280;15183;51.350;11.102;2023-08-01T02:03:34;98442.16;;;21.58;66.33
27805;BME280;15183;51.350;11.102;2023-08-01T02:06:02;98434.19;;;21.49;66.54
27805;BME280;15183;51.350;11.102;2023-08-01T02:08:30;98432.72;;;21.51;66.51
27805;BME280;15183;51.350;11.102;2023-08-01T02:10:57;98425.06;;;21.41;67.06
27805;BME280;15183;51.350;11.102;2023-08-01T02:13:28;98403.13;;;21.30;66.57
27805;BME280;15183;51.350;11.102;2023-08-01T02:15:56;98401.91;;;21.28;67.34
27805;BME280;15183;51.350;11.102;2023-08-01T02:18:26;98405.94;;;21.21;67.23
27805;BME280;15183;51.350;11.102;2023-08-01T02:20:53;98423.00;;;21.25;67.62
27805;BME280;15183;51.350;11.102;2023-08-01T02:23:20;98427.34;;;21.18;67.27
27805;BME280;15183;51.350;11.102;2023-08-01T02:25:46;98425.19;;;21.11;67.66
27805;BME280;15183;51.350;11.102;2023-08-01T02:28:13;98416.72;;;21.00;68.15
27805;BME280;15183;51.350;11.102;2023-08-01T02:30:40;98417.94;;;20.90;67.95
27805;BME280;15183;51.350;11.102;2023-08-01T02:33:06;98400.91;;;20.77;68.72
27805;BME280;15183;51.350;11.102;2023-08-01T02:35:35;98393.69;;;20.69;69.06
27805;BME280;15183;51.350;11.102;2023-08-01T02:38:03;98413.47;;;20.73;68.47
27805;BME280;15183;51.350;11.102;2023-08-01T02:40:30;98413.31;;;20.70;69.16
27805;BME280;15183;51.350;11.102;2023-08-01T02:42:56;98407.00;;;20.65;68.97
27805;BME280;15183;51.350;11.102;2023-08-01T02:45:23;98407.69;;;20.62;69.54
27805;BME280;15183;51.350;11.102;2023-08-01T02:47:49;98410.81;;;20.64;69.49
27805;BME280;15183;51.350;11.102;2023-08-01T02:50:16;98388.59;;;20.55;69.73
27805;BME280;15183;51.350;11.102;2023-08-01T02:52:43;98397.56;;;20.59;69.52
27805;BME280;15183;51.350;11.102;2023-08-01T02:55:10;98398.78;;;20.62;70.09
27805;BME280;15183;51.350;11.102;2023-08-01T02:57:37;98390.16;;;20.56;69.91
27805;BME280;15183;51.350;11.102;2023-08-01T03:00:05;98329.19;;;20.18;70.13
27805;BME280;15183;51.350;11.102;2023-08-01T03:02:32;98372.75;;;20.53;69.48
27805;BME280;15183;51.350;11.102;2023-08-01T03:04:59;98371.38;;;20.47;70.17
27805;BME280;15183;51.350;11.102;2023-08-01T03:07:25;98319.88;;;20.15;69.77
27805;BME280;15183;51.350;11.102;2023-08-01T03:09:52;98375.91;;;20.56;nan
27805;BME280;15183;51.350;11.102;2023-08-01T03:12:18;98346.03;;;20.27;70.04
27805;BME280;15183;51.350;11.102;2023-08-01T03:14:45;98361.28;;;20.44;70.14
27805;BME280;15183;51.350;11.102;2023-08-01T03:17:14;98377.56;;;20.48;70.65
27805;BME280;15183;51.350;11.102;2023-08-01T03:19:42;98379.44;;;20.47;70.69
27805;BME280;15183;51.350;11.102;2023-08-01T03:22:10;98378.84;;;20.42;70.86
27805;BME280;15183;51.350;11.102;2023-08-01T03:24:36;98377.72;;;20.43;70.54
27805;BME280;15183;51.350;11.102;2023-08-01T03:27:04;98372.53;;;20.37;70.89
27805;BME280;15183;51.350;11.102;2023-08-01T03:29:31;98361.00;;;20.37;70.38
27805;BME280;15183;51.350;11.102;2023-08-01T03:31:57;98358.38;;;20.28;70.89
27805;BME280;15183;51.350;11.102;2023-08-01T03:34:24;98358.19;;;20.33;70.96
27805;BME280;15183;51.350;11.102;2023-08-01T03:36:52;98359.28;;;20.32;71.14
27805;BME280;15183;51.350;11.102;2023-08-01T03:39:19;98360.75;;;20.30;70.98
27805;BME280;15183;51.350;11.102;2023-08-01T03:41:46;98334.31;;;20.10;70.93
27805;BME280;15183;51.350;11.102;2023-08-01T03:44:13;98350.03;;;20.21;71.27
27805;BME280;15183;51.350;11.102;2023-08-01T03:46:39;98360.91;;;20.24;71.76
27805;BME280;15183;51.350;11.102;2023-08-01T03:49:06;98335.41;;;20.09;71.78
27805;BME280;15183;51.350;11.102;2023-08-01T03:51:32;98342.84;;;20.13;71.81
27805;BME280;15183;51.350;11.102;2023-08-01T03:53:59;98338.41;;;20.08;72.38
27805;BME280;15183;51.350;11.102;2023-08-01T03:56:25;98355.63;;;20.16;72.27
27805;BME280;15183;51.350;11.102;2023-08-01T03:58:53;98322.47;;;20.03;72.51
27805;BME280;15183;51.350;11.102;2023-08-01T04:01:20;98328.47;;;20.08;72.61
27805;BME280;15183;51.350;11.102;2023-08-01T04:03:47;98334.31;;;20.10;72.47
27805;BME280;15183;51.350;11.102;2023-08-01T04:06:13;98318.06;;;19.98;72.33
27805;BME280;15183;51.350;11.102;2023-08-01T04:08:41;98340.13;;;20.13;72.39
27805;BME280;15183;51.350;11.102;2023-08-01T04:11:07;98315.38;;;19.98;72.61
27805;BME280;15183;51.350;11.102;2023-08-01T04:13:34;98296.75;;;19.93;72.76
27805;BME280;15183;51.350;11.102;2023-08-01T04:16:01;98330.50;;;20.12;73.24
27805;BME280;15183;51.350;11.102;2023-08-01T04:18:27;98307.41;;;20.10;73.24
27805;BME280;15183;51.350;11.102;2023-08-01T04:20:54;98286.28;;;20.00;72.70
27805;BME280;15183;51.350;11.102;2023-08-01T04:23:20;98292.50;;;20.13;72.74
27805;BME280;15183;51.350;11.102;2023-08-01T04:25:47;98217.06;;;19.67;72.82
27805;BME280;15183;51.350;11.102;2023-08-01T04:28:14;98278.47;;;20.07;72.90
27805;BME280;15183;51.350;11.102;2023-08-01T04:30:40;98271.25;;;19.99;72.98
27805;BME280;15183;51.350;11.102;2023-08-01T04:33:06;98294.22;;;20.18;73.29
27805;BME280;15183;51.350;11.102;2023-08-01T04:35:33;98279.53;;;20.15;73.49
27805;BME280;15183;51.350;11.102;2023-08-01T04:38:00;98218.72;;;19.80;73.33
27805;BME280;15183;51.350;11.102;2023-08-01T04:40:26;98257.69;;;20.17;73.49
27805;BME280;15183;51.350;11.102;2023-08-01T04:42:52;98187.63;;;19.71;73.65
27805;BME280;15183;51.350;11.102;2023-08-01T04:45:20;98237.56;;;20.02;73.42
27805;BME280;15183;51.350;11.102;2023-08-01T04:47:47;98231.78;;;20.12;73.46
27805;BME280;15183;51.350;11.102;2023-08-01T04:50:13;98231.31;;;20.10;74.05
27805;BME280;15183;51.350;11.102;2023-08-01T04:52:39;98217.84;;;19.98;74.30
27805;BME280;15183;51.350;11.102;2023-08-01T04:55:08;98246.69;;;20.09;74.10
27805;BME280;15183;51.350;11.102;2023-08-01T04:57:35;98246.69;;;20.09;73.90
27805;BME280;15183;51.350;11.102;2023-08-01T05:00:03;98247.66;;;20.05;73.94
27805;BME280;15183;51.350;11.102;2023-08-01T05:02:30;98259.19;;;20.05;74.16
27805;BME280;15183;51.350;11.102;2023-08-01T05:04:57;98251.53;;;19.95;74.51
27805;BME280;15183;51.350;11.102;2023-08-01T05:07:23;98252.44;;;19.99;74.18
27805;BME280;15183;51.350;11.102;2023-08-01T05:09:50;98249.28;;;19.97;74.62
27805;BME280;15183;51.350;11.102;2023-08-01T05:12:17;98236.19;;;19.95;74.90
27805;BME280;15183;51.350;11.102;2023-08-01T05:14:43;98194.34;;;19.86;74.42
27805;BME280;15183;51.350;11.102;2023-08-01T05:17:09;98216.00;;;20.10;74.41
27805;BME280;15183;51.350;11.102;2023-08-01T05:19:36;98211.84;;;20.13;75.08
27805;BME280;15183;51.350;11.102;2023-08-01T05:22:03;98219.00;;;20.09;74.87
27805;BME280;15183;51.350;11.102;2023-08-01T05:24:30;98238.41;;;20.15;74.74
27805;BME280;15183;51.350;11.102;2023-08-01T05:26:57;98238.53;;;20.18;74.65
27805;BME280;15183;51.350;11.102;2023-08-01T05:29:23;98233.59;;;20.20;74.73
27805;BME280;15183;51.350;11.102;2023-08-01T05:31:50;98221.03;;;20.12;74.79
27805;BME280;15183;51.350;11.102;2023-08-01T05:34:17;98219.31;;;20.07;74.83
27805;BME280;15183;51.350;11.102;2023-08-01T05:36:43;98246.84;;;20.25;74.81
27805;BME280;15183;51.350;11.102;2023-08-01T05:39:10;98193.50;;;19.94;74.58
27805;BME280;15183;51.350;11.102;2023-08-01T05:41:37;98231.81;;;20.24;74.95
27805;BME280;15183;51.350;11.102;2023-08-01T05:44:04;98219.50;;;20.23;74.92
27805;BME280;15183;51.350;11.102;2023-08-01T05:46:30;98232.88;;;20.32;74.50
27805;BME280;15183;51.350;11.102;2023-08-01T05:48:57;98223.06;;;20.15;74.65
27805;BME280;15183;51.350;11.102;2023-08-01T05:51:24;98237.34;;;20.28;74.87
27805;BME280;15183;51.350;11.102;2023-08-01T05:53:51;98239.25;;;20.28;74.85
27805;BME280;15183;51.350;11.102;2023-08-01T05:56:17;98240.50;;;20.30;75.14
27805;BME280;15183;51.350;11.102;2023-08-01T05:58:45;98246.78;;;20.34;74.90
27805;BME280;15183;51.350;11.102;2023-08-01T06:01:12;98260.03;;;20.39;74.97
27805;BME280;15183;51.350;11.102;2023-08-01T06:03:39;98242.13;;;20.22;75.23
27805;BME280;15183;51.350;11.102;2023-08-01T06:06:06;98240.34;;;20.27;75.06
27805;BME280;15183;51.350;11.102;2023-08-01T06:08:33;98254.97;;;20.38;75.48
27805;BME280;15183;51.350;11.102;2023-08-01T06:10:59;98271.59;;;20.40;75.15
27805;BME280;15183;51.350;11.102;2023-08-01T06:13:26;98267.63;;;20.37;75.13
27805;BME280;15183;51.350;11.102;2023-08-01T06:15:53;98234.34;;;20.30;75.32
27805;BME280;15183;51.350;11.102;2023-08-01T06:18:19;98243.63;;;20.32;75.46
27805;BME280;15183;51.350;11.102;2023-08-01T06:20:46;98295.66;;;20.36;75.30
27805;BME280;15183;51.350;11.102;2023-08-01T06:23:12;98257.28;;;20.27;74.66
27805;BME280;15183;51.350;11.102;2023-08-01T06:25:38;98253.72;;;20.35;74.88
27805;BME280;15183;51.350;11.102;2023-08-01T06:28:05;98207.69;;;20.37;75.55
27805;BME280;15183;51.350;11.102;2023-08-01T06:30:32;98092.03;;;20.03;75.16
27805;BME280;15183;51.350;11.102;2023-08-01T06:32:59;98111.75;;;19.95;75.16
27805;BME280;15183;51.350;11.102;2023-08-01T06:35:27;98233.22;;;20.31;75.37
27805;BME280;15183;51.350;11.102;2023-08-01T06:37:54;98230.34;;;20.15;75.09
27805;BME280;15183;51.350;11.102;2023-08-01T06:40:20;98271.06;;;20.25;75.55
27805;BME280;15183;51.350;11.102;2023-08-01T06:42:47;98261.22;;;20.30;75.16
27805;BME280;15183;51.350;11.102;2023-08-01T06:45:17;98252.81;;;20.31;75.83
27805;BME280;15183;51.350;11.102;2023-08-01T06:47:43;98248.09;;;20.28;75.31
27805;BME280;15183;51.350;11.102;2023-08-01T06:50:13;98228.31;;;20.12;75.56
27805;BME280;15183;51.350;11.102;2023-08-01T06:52:39;98245.56;;;20.32;75.66
27805;BME280;15183;51.350;11.102;2023-08-01T06:55:08;98233.31;;;20.34;75.77
27805;BME280;15183;51.350;11.102;2023-08-01T06:57:34;98213.81;;;20.25;75.16
27805;BME280;15183;51.350;11.102;2023-08-01T07:00:00;98205.66;;;20.34;75.40
27805;BME280;15183;51.350;11.102;2023-08-01T07:02:28;98199.72;;;20.41;75.52
27805;BME280;15183;51.350;11.102;2023-08-01T07:04:55;98216.59;;;20.50;75.02
27805;BME280;15183;51.350;11.102;2023-08-01T07:07:22;98224.22;;;20.60;75.33
27805;BME280;15183;51.350;11.102;2023-08-01T07:09:49;98226.91;;;20.60;75.56
27805;BME280;15183;51.350;11.102;2023-08-01T07:12:15;98205.38;;;20.48;75.31
27805;BME280;15183;51.350;11.102;2023-08-01T07:14:42;98217.59;;;20.58;75.90
27805;BME280;15183;51.350;11.102;2023-08-01T07:17:09;98207.19;;;20.56;75.87
27805;BME280;15183;51.350;11.102;2023-08-01T07:19:35;98202.69;;;20.60;76.02
27805;BME280;15183;51.350;11.102;2023-08-01T07:22:02;98219.75;;;20.77;75.50
27805;BME280;15183;51.350;11.102;2023-08-01T07:24:30;98216.88;;;20.82;75.93
27805;BME280;15183;51.350;11.102;2023-08-01T07:26:56;98220.16;;;20.88;75.59
27805;BME280;15183;51.350;11.102;2023-08-01T07:29:23;98210.19;;;20.88;75.49
27805;BME280;15183;51.350;11.102;2023-08-01T07:31:50;98168.16;;;20.62;76.29
27805;BME280;15183;51.350;11.102;2023-08-01T07:34:17;98191.78;;;20.90;75.72
27805;BME280;15183;51.350;11.102;2023-08-01T07:36:47;98217.50;;;21.13;75.91
27805;BME280;15183;51.350;11.102;2023-08-01T07:39:16;98201.66;;;21.11;75.63
27805;BME280;15183;51.350;11.102;2023-08-01T07:41:43;98191.91;;;21.19;75.39
27805;BME280;15183;51.350;11.102;2023-08-01T07:44:09;98214.69;;;21.34;75.58
27805;BME280;15183;51.350;11.102;2023-08-01T07:46:37;98201.88;;;21.31;75.27
27805;BME280;15183;51.350;11.102;2023-08-01T07:49:04;98217.81;;;21.36;75.56
27805;BME280;15183;51.350;11.102;2023-08-01T07:51:30;98204.22;;;21.32;75.12
27805;BME280;15183;51.350;11.102;2023-08-01T07:53:58;98170.38;;;21.06;75.55
27805;BME280;15183;51.350;11.102;2023-08-01T07:56:25;98217.69;;;21.32;75.25
27805;BME280;15183;51.350;11.102;2023-08-01T07:58:51;98229.94;;;21.30;75.11
27805;BME280;15183;51.350;11.102;2023-08-01T08:01:18;98247.91;;;21.25;75.40
27805;BME280;15183;51.350;11.102;2023-08-01T08:03:45;98257.56;;;21.27;75.29
27805;BME280;15183;51.350;11.102;2023-08-01T08:06:11;98275.97;;;21.24;75.27
27805;BME280;15183;51.350;11.102;2023-08-01T08:08:38;98262.25;;;21.17;75.70
27805;BME280;15183;51.350;11.102;2023-08-01T08:11:05;98264.03;;;21.13;75.49
27805;BME280;15183;51.350;11.102;2023-08-01T08:13:31;98225.22;;;21.02;76.10
27805;BME280;15183;51.350;11.102;2023-08-01T08:15:58;98264.97;;;21.30;76.05
27805;BME280;15183;51.350;11.102;2023-08-01T08:18:25;98266.75;;;21.38;76.32
27805;BME280;15183;51.350;11.102;2023-08-01T08:20:51;98254.06;;;21.38;76.43
27805;BME280;15183;51.350;11.102;2023-08-01T08:23:18;98261.56;;;21.58;76.39
27805;BME280;15183;51.350;11.102;2023-08-01T08:25:45;98245.09;;;21.59;76.29
27805;BME280;15183;51.350;11.102;2023-08-01T08:28:14;98251.28;;;21.72;75.97
27805;BME280;15183;51.350;11.102;2023-08-01T08:30:40;98270.91;;;21.85;76.35
27805;BME280;15183;51.350;11.102;2023-08-01T08:33:07;98274.59;;;21.93;76.10
27805;BME280;15183;51.350;11.102;2023-08-01T08:35:34;98282.00;;;21.96;75.68
27805;BME280;15183;51.350;11.102;2023-08-01T08:38:05;98250.13;;;21.86;75.52
27805;BME280;15183;51.350;11.102;2023-08-01T08:40:35;98270.09;;;21.97;75.40
27805;BME280;15183;51.350;11.102;2023-08-01T08:43:07;98260.91;;;21.98;74.98
27805;BME280;15183;51.350;11.102;2023-08-01T08:45:36;98271.63;;;22.10;74.82
27805;BME280;15183;51.350;11.102;2023-08-01T08:48:12;98251.75;;;22.03;74.77
27805;BME280;15183;51.350;11.102;2023-08-01T08:50:42;98231.88;;;21.95;73.91
27805;BME280;15183;51.350;11.102;2023-08-01T08:53:09;98258.03;;;22.07;74.41
27805;BME280;15183;51.350;11.102;2023-08-01T08:55:40;98266.88;;;22.20;74.27
27805;BME280;15183;51.350;11.102;2023-08-01T08:58:08;98252.94;;;22.18;73.21
27805;BME280;15183;51.350;11.102;2023-08-01T09:00:36;98267.31;;;22.22;73.58
27805;BME280;15183;51.350;11.102;2023-08-01T09:03:06;98258.78;;;22.20;73.29
27805;BME280;15183;51.350;11.102;2023-08-01T09:06:07;98218.19;;;22.00;73.62
27805;BME280;15183;51.350;11.102;2023-08-01T09:08:35;98292.19;;;22.56;73.53
27805;BME280;15183;51.350;11.102;2023-08-01T09:11:03;98282.03;;;22.65;73.58
27805;BME280;15183;51.350;11.102;2023-08-01T09:13:31;98270.34;;;22.61;72.64
27805;BME280;15183;51.350;11.102;2023-08-01T09:16:02;98288.94;;;22.79;72.43
27805;BME280;15183;51.350;11.102;2023-08-01T09:18:29;98262.50;;;22.56;72.31
27805;BME280;15183;51.350;11.102;2023-08-01T09:20:55;98290.50;;;22.80;72.12
27805;BME280;15183;51.350;11.102;2023-08-01T09:23:28;98286.13;;;22.75;71.49
27805;BME280;15183;51.350;11.102;2023-08-01T09:25:56;98252.06;;;22.54;71.57
27805;BME280;15183;51.350;11.102;2023-08-01T09:28:24;98268.78;;;22.60;71.37
27805;BME280;15183;51.350;11.102;2023-08-01T09:30:55;98305.59;;;22.81;70.66
27805;BME280;15183;51.350;11.102;2023-08-01T09:33:22;98307.41;;;22.77;71.19
27805;BME280;15183;51.350;11.102;2023-08-01T09:35:50;98306.78;;;22.83;70.61
27805;BME280;15183;51.350;11.102;2023-08-01T09:38:17;98306.03;;;22.83;70.60
27805;BME280;15183;51.350;11.102;2023-08-01T09:40:45;98313.44;;;22.86;70.77
27805;BME280;15183;51.350;11.102;2023-08-01T09:43:13;98327.72;;;23.03;70.30
27805;BME280;15183;51.350;11.102;2023-08-01T09:45:53;98329.41;;;23.07;69.64
27805;BME280;15183;51.350;11.102;2023-08-01T09:48:25;98314.22;;;23.03;70.03
27805;BME280;15183;51.350;11.102;2023-08-01T09:51:14;98330.81;;;23.17;70.02
27805;BME280;15183;51.350;11.102;2023-08-01T09:53:52;98333.78;;;23.28;69.38
27805;BME280;15183;51.350;11.102;2023-08-01T09:56:24;98333.25;;;23.22;68.14
27805;BME280;15183;51.350;11.102;2023-08-01T09:58:53;98339.44;;;23.23;68.31
27805;BME280;15183;51.350;11.102;2023-08-01T10:01:24;98343.19;;;23.18;68.29
27805;BME280;15183;51.350;11.102;2023-08-01T10:03:53;98337.94;;;23.09;68.62
27805;BME280;15183;51.350;11.102;2023-08-01T10:06:24;98346.94;;;23.13;68.96
27805;BME280;15183;51.350;11.102;2023-08-01T10:08:52;98342.00;;;23.32;68.89
27805;BME280;15183;51.350;11.102;2023-08-01T10:11:21;98355.63;;;23.51;69.19
27805;BME280;15183;51.350;11.102;2023-08-01T10:13:49;98335.63;;;23.56;68.15
27805;BME280;15183;51.350;11.102;2023-08-01T10:16:17;98335.28;;;23.74;67.45
27805;BME280;15183;51.350;11.102;2023-08-01T10:18:44;98340.28;;;23.91;67.58
27805;BME280;15183;51.350;11.102;2023-08-01T10:21:14;98352.97;;;24.03;67.50
27805;BME280;15183;51.350;11.102;2023-08-01T10:23:42;98333.75;;;24.08;67.53
27805;BME280;15183;51.350;11.102;2023-08-01T10:26:10;98324.63;;;24.17;66.90
27805;BME280;15183;51.350;11.102;2023-08-01T10:28:40;98304.41;;;24.10;66.24
27805;BME280;15183;51.350;11.102;2023-08-01T10:31:13;98357.78;;;24.69;65.38
27805;BME280;15183;51.350;11.102;2023-08-01T10:33:42;98331.91;;;24.71;64.53
27805;BME280;15183;51.350;11.102;2023-08-01T10:36:20;98347.94;;;25.00;64.59
27805;BME280;15183;51.350;11.102;2023-08-01T10:38:57;98355.97;;;25.16;64.08
27805;BME280;15183;51.350;11.102;2023-08-01T10:41:27;98372.97;;;25.36;65.17
27805;BME280;15183;51.350;11.102;2023-08-01T10:44:12;98362.03;;;25.52;64.30
27805;BME280;15183;51.350;11.102;2023-08-01T10:47:04;98377.47;;;25.48;63.50
27805;BME280;15183;51.350;11.102;2023-08-01T10:49:42;98371.16;;;25.44;63.40
27805;BME280;15183;51.350;11.102;2023-08-01T10:52:24;98368.69;;;25.35;63.16
27805;BME280;15183;51.350;11.102;2023-08-01T10:55:01;98359.47;;;25.40;63.16
27805;BME280;15183;51.350;11.102;2023-08-01T10:57:30;98360.69;;;25.66;62.48
27805;BME280;15183;51.350;11.102;2023-08-01T10:59:57;98360.13;;;26.07;61.62
27805;BME280;15183;51.350;11.102;2023-08-01T11:02:28;98304.53;;;25.97;60.99
27805;BME280;15183;51.350;11.102;2023-08-01T11:05:06;98360.41;;;26.59;60.23
27805;BME280;15183;51.350;11.102;2023-08-01T11:07:34;98366.41;;;26.72;59.73
27805;BME280;15183;51.350;11.102;2023-08-01T11:10:11;98364.09;;;26.78;59.29
27805;BME280;15183;51.350;11.102;2023-08-01T11:12:43;98340.00;;;26.72;58.05
27805;BME280;15183;51.350;11.102;2023-08-01T11:15:13;98353.69;;;26.83;57.36
27805;BME280;15183;51.350;11.102;2023-08-01T11:17:50;98344.31;;;26.77;57.04
27805;BME280;15183;51.350;11.102;2023-08-01T11:20:21;98348.97;;;26.77;56.94
27805;BME280;15183;51.350;11.102;2023-08-01T11:22:59;98341.69;;;26.84;56.41
27805;BME280;15183;51.350;11.102;2023-08-01T11:25:41;98343.28;;;26.89;56.33
27805;BME280;15183;51.350;11.102;2023-08-01T11:28:13;98334.47;;;26.99;55.22
27805;BME280;15183;51.350;11.102;2023-08-01T11:30:40;98342.41;;;27.15;55.17
27805;BME280;15183;51.350;11.102;2023-08-01T11:33:33;98337.75;;;27.20;55.11
27805;BME280;15183;51.350;11.102;2023-08-01T11:36:00;98310.59;;;27.23;54.52
27805;BME280;15183;51.350;11.102;2023-08-01T11:38:27;98316.97;;;27.42;52.73
27805;BME280;15183;51.350;11.102;2023-08-01T11:41:00;98331.13;;;27.62;52.01
27805;BME280;15183;51.350;11.102;2023-08-01T11:43:49;98333.44;;;27.60;50.93
27805;BME280;15183;51.350;11.102;2023-08-01T11:46:14;98332.22;;;27.50;51.28
27805;BME280;15183;51.350;11.102;2023-08-01T11:48:45;98330.88;;;27.29;50.77
27805;BME280;15183;51.350;11.102;2023-08-01T11:51:13;98349.47;;;27.27;50.24
27805;BME280;15183;51.350;11.102;2023-08-01T11:53:40;98339.56;;;27.05;50.77
27805;BME280;15183;51.350;11.102;2023-08-01T11:56:19;98336.38;;;26.95;51.10
27805;BME280;15183;51.350;11.102;2023-08-01T11:58:50;98355.50;;;27.06;51.54
27805;BME280;15183;51.350;11.102;2023-08-01T12:01:18;98352.47;;;27.11;51.11
27805;BME280;15183;51.350;11.102;2023-08-01T12:03:54;98342.03;;;27.21;51.02
27805;BME280;15183;51.350;11.102;2023-08-01T12:06:23;98358.78;;;27.26;50.08
27805;BME280;15183;51.350;11.102;2023-08-01T12:08:52;98347.50;;;27.24;50.66
27805;BME280;15183;51.350;11.102;2023-08-01T12:11:28;98358.72;;;27.15;51.04
27805;BME280;15183;51.350;11.102;2023-08-01T12:14:06;98354.31;;;27.04;51.09
27805;BME280;15183;51.350;11.102;2023-08-01T12:16:47;98391.34;;;26.81;52.16
27805;BME280;15183;51.350;11.102;2023-08-01T12:19:18;98423.00;;;25.85;55.35
27805;BME280;15183;51.350;11.102;2023-08-01T12:21:46;98384.69;;;24.78;57.60
27805;BME280;15183;51.350;11.102;2023-08-01T12:24:12;98394.69;;;24.02;59.79
27805;BME280;15183;51.350;11.102;2023-08-01T12:26:39;98377.75;;;23.41;61.33
27805;BME280;15183;51.350;11.102;2023-08-01T12:29:05;98389.03;;;23.15;63.40
27805;BME280;15183;51.350;11.102;2023-08-01T12:31:32;98397.84;;;22.83;64.04
27805;BME280;15183;51.350;11.102;2023-08-01T12:33:59;98399.25;;;22.64;64.84
27805;BME280;15183;51.350;11.102;2023-08-01T12:36:26;98380.59;;;22.34;65.15
27805;BME280;15183;51.350;11.102;2023-08-01T12:38:53;98400.22;;;22.19;66.13
27805;BME280;15183;51.350;11.102;2023-08-01T12:41:20;98379.09;;;21.96;66.90
27805;BME280;15183;51.350;11.102;2023-08-01T12:43:46;98412.03;;;21.89;67.43
27805;BME280;15183;51.350;11.102;2023-08-01T12:46:13;98414.38;;;21.78;67.26
27805;BME280;15183;51.350;11.102;2023-08-01T12:48:39;98371.84;;;21.38;68.18
27805;BME280;15183;51.350;11.102;2023-08-01T12:51:06;98363.41;;;21.27;68.21
27805;BME280;15183;51.350;11.102;2023-08-01T12:53:32;98364.59;;;21.17;68.90
27805;BME280;15183;51.350;11.102;2023-08-01T12:55:59;98368.63;;;21.11;69.92